sensor_id;sensor_type;location;lat;lon;timestamp;pressure;altitude;pressure_sealevel;temperature;humidity
58690;BME280;44470;53.206;-6.106;2023-04-20T00:01:26;102583.75;;;21.03;50.61
58690;BME280;44470;53.206;-6.106;2023-04-20T00:03:51;102581.06;;;21.00;50.90
58690;BME280;44470;53.206;-6.106;2023-04-20T00:06:17;102565.91;;;20.98;50.79
58690;BME280;44470;53.206;-6.106;2023-04-20T00:08:42;102579.28;;;20.99;50.40
58690;BME280;44470;53.206;-6.106;2023-04-20T00:11:08;102568.56;;;20.96;50.42
58690;BME280;44470;53.206;-6.106;2023-04-20T00:13:34;102584.63;;;20.99;50.85
58690;BME280;44470;53.206;-6.106;2023-04-20T00:15:59;102579.25;;;20.96;51.01
58690;BME280;44470;53.206;-6.106;2023-04-20T00:18:25;102579.25;;;20.93;50.89
58690;BME280;44470;53.206;-6.106;2023-04-20T00:20:50;102581.97;;;20.98;50.60
58690;BME280;44470;53.206;-6.106;2023-04-20T00:23:16;102579.28;;;20.99;51.06
58690;BME280;44470;53.206;-6.106;2023-04-20T00:25:41;102576.56;;;20.93;50.60
58690;BME280;44470;53.206;-6.106;2023-04-20T00:28:07;102581.00;;;20.93;51.10
58690;BME280;44470;53.206;-6.106;2023-04-20T00:30:32;102584.59;;;20.96;50.78
58690;BME280;44470;53.206;-6.106;2023-04-20T00:32:58;102572.06;;;20.90;50.62
58690;BME280;44470;53.206;-6.106;2023-04-20T00:35:23;102581.03;;;20.94;50.81
58690;BME280;44470;53.206;-6.106;2023-04-20T00:37:50;102583.69;;;20.93;50.57
58690;BME280;44470;53.206;-6.106;2023-04-20T00:40:16;102582.75;;;20.83;51.41
58690;BME280;44470;53.206;-6.106;2023-04-20T00:42:41;102587.19;;;20.82;51.26
58690;BME280;44470;53.206;-6.106;2023-04-20T00:45:07;102602.41;;;20.88;51.01
58690;BME280;44470;53.206;-6.106;2023-04-20T00:47:36;102587.22;;;20.84;51.52
58690;BME280;44470;53.206;-6.106;2023-04-20T00:50:01;102587.22;;;20.84;51.13
58690;BME280;44470;53.206;-6.106;2023-04-20T00:52:27;102580.97;;;20.83;51.53
58690;BME280;44470;53.206;-6.106;2023-04-20T00:54:52;102573.84;;;20.81;51.20
58690;BME280;44470;53.206;-6.106;2023-04-20T00:57:18;102575.63;;;20.86;51.15
58690;BME280;44470;53.206;-6.106;2023-04-20T00:59:49;102577.41;;;20.83;51.04
58690;BME280;44470;53.206;-6.106;2023-04-20T01:02:15;102577.41;;;20.83;50.91
58690;BME280;44470;53.206;-6.106;2023-04-20T01:04:43;102572.03;;;20.81;50.91
58690;BME280;44470;53.206;-6.106;2023-04-20T01:07:09;102580.06;;;20.81;51.33
58690;BME280;44470;53.206;-6.106;2023-04-20T01:09:37;102552.31;;;20.68;51.16
58690;BME280;44470;53.206;-6.106;2023-04-20T01:12:05;102558.59;;;20.78;51.32
58690;BME280;44470;53.206;-6.106;2023-04-20T01:14:31;102587.22;;;20.88;51.27
58690;BME280;44470;53.206;-6.106;2023-04-20T01:16:57;102579.28;;;20.95;51.17
58690;BME280;44470;53.206;-6.106;2023-04-20T01:19:23;102582.84;;;20.98;50.86
58690;BME280;44470;53.206;-6.106;2023-04-20T01:21:49;102587.28;;;20.96;51.01
58690;BME280;44470;53.206;-6.106;2023-04-20T01:24:15;102565.78;;;20.82;50.82
58690;BME280;44470;53.206;-6.106;2023-04-20T01:26:40;102586.38;;;20.91;50.84
58690;BME280;44470;53.206;-6.106;2023-04-20T01:29:06;102586.41;;;20.97;50.79
58690;BME280;44470;53.206;-6.106;2023-04-20T01:31:31;102575.69;;;20.96;50.62
58690;BME280;44470;53.206;-6.106;2023-04-20T01:33:57;102571.19;;;20.91;50.71
58690;BME280;44470;53.206;-6.106;2023-04-20T01:36:22;102581.03;;;20.91;50.96
58690;BME280;44470;53.206;-6.106;2023-04-20T01:38:48;102574.72;;;20.81;50.80
58690;BME280;44470;53.206;-6.106;2023-04-20T01:41:13;102581.88;;;20.84;50.75
58690;BME280;44470;53.206;-6.106;2023-04-20T01:43:39;102573.84;;;20.84;50.59
58690;BME280;44470;53.206;-6.106;2023-04-20T01:46:05;102574.72;;;20.83;50.84
58690;BME280;44470;53.206;-6.106;2023-04-20T01:48:31;102564.91;;;20.82;50.50
58690;BME280;44470;53.206;-6.106;2023-04-20T01:50:57;102571.16;;;20.84;50.96
58690;BME280;44470;53.206;-6.106;2023-04-20T01:53:23;102572.94;;;20.83;51.28
58690;BME280;44470;53.206;-6.106;2023-04-20T01:55:50;102546.97;;;20.68;51.05
58690;BME280;44470;53.206;-6.106;2023-04-20T01:58:15;102572.03;;;20.80;50.91
58690;BME280;44470;53.206;-6.106;2023-04-20T02:00:41;102575.63;;;20.89;50.69
58690;BME280;44470;53.206;-6.106;2023-04-20T02:03:07;102567.63;;;20.91;50.49
58690;BME280;44470;53.206;-6.106;2023-04-20T02:05:33;102573.88;;;20.93;50.45
58690;BME280;44470;53.206;-6.106;2023-04-20T02:07:58;102569.38;;;20.87;50.53
58690;BME280;44470;53.206;-6.106;2023-04-20T02:10:24;102563.13;;;20.85;50.53
58690;BME280;44470;53.206;-6.106;2023-04-20T02:12:50;102559.56;;;20.82;50.71
58690;BME280;44470;53.206;-6.106;2023-04-20T02:15:15;102528.25;;;20.70;51.21
58690;BME280;44470;53.206;-6.106;2023-04-20T02:17:41;102548.00;;;20.89;50.79
58690;BME280;44470;53.206;-6.106;2023-04-20T02:20:08;102551.56;;;20.91;51.02
58690;BME280;44470;53.206;-6.106;2023-04-20T02:22:35;102546.22;;;20.93;50.75
58690;BME280;44470;53.206;-6.106;2023-04-20T02:25:02;102536.44;;;20.96;51.03
58690;BME280;44470;53.206;-6.106;2023-04-20T02:27:32;102538.22;;;21.00;50.90
58690;BME280;44470;53.206;-6.106;2023-04-20T02:29:58;102538.22;;;20.97;50.68
58690;BME280;44470;53.206;-6.106;2023-04-20T02:32:24;102545.31;;;20.89;50.44
58690;BME280;44470;53.206;-6.106;2023-04-20T02:34:50;102555.19;;;20.99;50.64
58690;BME280;44470;53.206;-6.106;2023-04-20T02:37:16;102562.34;;;21.05;50.96
58690;BME280;44470;53.206;-6.106;2023-04-20T02:39:41;102562.34;;;21.03;51.17
58690;BME280;44470;53.206;-6.106;2023-04-20T02:42:07;102553.31;;;20.87;51.01
58690;BME280;44470;53.206;-6.106;2023-04-20T02:44:33;102571.22;;;20.93;50.32
58690;BME280;44470;53.206;-6.106;2023-04-20T02:47:00;102556.03;;;20.92;51.04
58690;BME280;44470;53.206;-6.106;2023-04-20T02:49:26;102543.59;;;20.99;51.13
58690;BME280;44470;53.206;-6.106;2023-04-20T02:51:51;102498.00;;;20.86;50.36
58690;BME280;44470;53.206;-6.106;2023-04-20T02:54:17;102512.34;;;20.95;50.75
58690;BME280;44470;53.206;-6.106;2023-04-20T02:56:43;102534.69;;;21.08;50.41
58690;BME280;44470;53.206;-6.106;2023-04-20T02:59:09;102518.59;;;20.98;50.84
58690;BME280;44470;53.206;-6.106;2023-04-20T03:01:55;102524.88;;;21.02;50.44
58690;BME280;44470;53.206;-6.106;2023-04-20T03:04:23;102523.09;;;21.01;50.20
58690;BME280;44470;53.206;-6.106;2023-04-20T03:07:13;102521.28;;;21.00;50.67
58690;BME280;44470;53.206;-6.106;2023-04-20T03:09:38;102515.03;;;20.96;50.33
58690;BME280;44470;53.206;-6.106;2023-04-20T03:12:19;102523.06;;;20.99;50.16
58690;BME280;44470;53.206;-6.106;2023-04-20T03:15:06;102522.13;;;20.88;50.45
58690;BME280;44470;53.206;-6.106;2023-04-20T03:17:44;102524.81;;;20.91;50.07
58690;BME280;44470;53.206;-6.106;2023-04-20T03:20:10;102528.41;;;20.98;49.92
58690;BME280;44470;53.206;-6.106;2023-04-20T03:22:36;102521.22;;;20.89;50.12
58690;BME280;44470;53.206;-6.106;2023-04-20T03:25:02;102522.16;;;20.96;49.82
58690;BME280;44470;53.206;-6.106;2023-04-20T03:27:45;102516.78;;;20.91;49.97
58690;BME280;44470;53.206;-6.106;2023-04-20T03:30:12;102523.09;;;21.04;49.74
58690;BME280;44470;53.206;-6.106;2023-04-20T03:32:39;102519.50;;;20.96;49.78
58690;BME280;44470;53.206;-6.106;2023-04-20T03:35:05;102531.13;;;21.04;49.75
58690;BME280;44470;53.206;-6.106;2023-04-20T03:37:31;102530.25;;;21.08;49.36
58690;BME280;44470;53.206;-6.106;2023-04-20T03:39:56;102527.59;;;21.20;49.11
58690;BME280;44470;53.206;-6.106;2023-04-20T03:42:23;102539.16;;;21.09;49.22
58690;BME280;44470;53.206;-6.106;2023-04-20T03:44:49;102526.78;;;21.45;48.71
58690;BME280;44470;53.206;-6.106;2023-04-20T03:47:14;102529.44;;;21.45;48.35
58690;BME280;44470;53.206;-6.106;2023-04-20T03:49:40;102517.81;;;21.30;48.64
58690;BME280;44470;53.206;-6.106;2023-04-20T03:52:05;102505.34;;;21.36;47.99
58690;BME280;44470;53.206;-6.106;2023-04-20T03:54:31;102490.09;;;21.19;48.47
58690;BME280;44470;53.206;-6.106;2023-04-20T03:56:57;102501.75;;;21.41;47.79
58690;BME280;44470;53.206;-6.106;2023-04-20T03:59:25;102501.75;;;21.40;48.28
58690;BME280;44470;53.206;-6.106;2023-04-20T04:01:51;102502.66;;;21.32;48.20
58690;BME280;44470;53.206;-6.106;2023-04-20T04:04:16;102506.22;;;21.41;47.98
58690;BME280;44470;53.206;-6.106;2023-04-20T04:06:42;102480.31;;;21.29;47.77
58690;BME280;44470;53.206;-6.106;2023-04-20T04:09:08;102515.16;;;21.52;47.50
58690;BME280;44470;53.206;-6.106;2023-04-20T04:11:33;102500.84;;;21.36;47.90
58690;BME280;44470;53.206;-6.106;2023-04-20T04:13:59;102500.88;;;21.53;47.18
58690;BME280;44470;53.206;-6.106;2023-04-20T04:16:26;102483.00;;;21.43;47.71
58690;BME280;44470;53.206;-6.106;2023-04-20T04:18:53;102496.44;;;21.54;47.51
58690;BME280;44470;53.206;-6.106;2023-04-20T04:21:19;102496.44;;;21.57;47.03
58690;BME280;44470;53.206;-6.106;2023-04-20T04:23:51;102471.38;;;21.24;47.92
58690;BME280;44470;53.206;-6.106;2023-04-20T04:26:26;102493.72;;;21.33;48.50
58690;BME280;44470;53.206;-6.106;2023-04-20T04:28:52;102489.25;;;21.26;48.85
58690;BME280;44470;53.206;-6.106;2023-04-20T04:31:19;102482.09;;;21.22;48.65
58690;BME280;44470;53.206;-6.106;2023-04-20T04:33:46;102454.38;;;21.08;48.88
58690;BME280;44470;53.206;-6.106;2023-04-20T04:36:20;102491.03;;;21.30;48.71
58690;BME280;44470;53.206;-6.106;2023-04-20T04:38:46;102501.69;;;21.12;48.91
58690;BME280;44470;53.206;-6.106;2023-04-20T04:41:12;102482.91;;;20.96;49.14
58690;BME280;44470;53.206;-6.106;2023-04-20T04:43:39;102496.41;;;21.37;47.91
58690;BME280;44470;53.206;-6.106;2023-04-20T04:46:17;102515.16;;;21.40;48.23
58690;BME280;44470;53.206;-6.106;2023-04-20T04:48:43;102486.56;;;21.26;48.47
58690;BME280;44470;53.206;-6.106;2023-04-20T04:51:09;102500.88;;;21.41;47.99
58690;BME280;44470;53.206;-6.106;2023-04-20T04:53:35;102499.09;;;21.46;48.06
58690;BME280;44470;53.206;-6.106;2023-04-20T04:56:01;102496.44;;;21.51;48.03
58690;BME280;44470;53.206;-6.106;2023-04-20T04:58:27;102495.50;;;21.34;48.16
58690;BME280;44470;53.206;-6.106;2023-04-20T05:00:52;102494.59;;;21.34;48.35
58690;BME280;44470;53.206;-6.106;2023-04-20T05:03:17;102488.34;;;21.26;48.47
58690;BME280;44470;53.206;-6.106;2023-04-20T05:05:43;102493.69;;;21.19;48.45
58690;BME280;44470;53.206;-6.106;2023-04-20T05:08:08;102514.25;;;21.28;48.63
58690;BME280;44470;53.206;-6.106;2023-04-20T05:10:34;102504.41;;;21.38;47.85
58690;BME280;44470;53.206;-6.106;2023-04-20T05:13:00;102517.00;;;21.69;47.54
58690;BME280;44470;53.206;-6.106;2023-04-20T05:15:25;102516.97;;;21.56;47.66
58690;BME280;44470;53.206;-6.106;2023-04-20T05:17:51;102510.69;;;21.43;48.01
58690;BME280;44470;53.206;-6.106;2023-04-20T05:20:17;102501.81;;;21.88;47.06
58690;BME280;44470;53.206;-6.106;2023-04-20T05:22:43;102497.38;;;21.79;47.24
58690;BME280;44470;53.206;-6.106;2023-04-20T05:25:09;102494.66;;;21.96;46.81
58690;BME280;44470;53.206;-6.106;2023-04-20T05:27:35;102494.69;;;21.68;47.42
58690;BME280;44470;53.206;-6.106;2023-04-20T05:30:00;102495.59;;;21.90;47.18
58690;BME280;44470;53.206;-6.106;2023-04-20T05:32:26;102481.22;;;21.37;47.54
58690;BME280;44470;53.206;-6.106;2023-04-20T05:34:51;102512.50;;;21.46;47.85
58690;BME280;44470;53.206;-6.106;2023-04-20T05:37:17;102515.19;;;21.61;47.08
58690;BME280;44470;53.206;-6.106;2023-04-20T05:39:42;102520.53;;;21.58;47.24
58690;BME280;44470;53.206;-6.106;2023-04-20T05:42:08;102519.66;;;21.48;47.85
58690;BME280;44470;53.206;-6.106;2023-04-20T05:44:33;102508.06;;;21.67;46.79
58690;BME280;44470;53.206;-6.106;2023-04-20T05:47:01;102506.22;;;21.44;48.12
58690;BME280;44470;53.206;-6.106;2023-04-20T05:49:31;102508.88;;;21.33;48.27
58690;BME280;44470;53.206;-6.106;2023-04-20T05:51:56;102516.03;;;21.29;48.79
58690;BME280;44470;53.206;-6.106;2023-04-20T05:54:22;102522.28;;;21.31;48.56
58690;BME280;44470;53.206;-6.106;2023-04-20T05:56:47;102527.63;;;21.28;48.65
58690;BME280;44470;53.206;-6.106;2023-04-20T05:59:13;102528.53;;;21.40;48.48
58690;BME280;44470;53.206;-6.106;2023-04-20T06:01:39;102536.63;;;21.54;47.55
58690;BME280;44470;53.206;-6.106;2023-04-20T06:04:05;102537.56;;;21.96;47.09
58690;BME280;44470;53.206;-6.106;2023-04-20T06:06:31;102486.59;;;21.60;46.97
58690;BME280;44470;53.206;-6.106;2023-04-20T06:08:56;102534.00;;;21.89;46.68
58690;BME280;44470;53.206;-6.106;2023-04-20T06:11:22;102528.63;;;21.91;47.06
58690;BME280;44470;53.206;-6.106;2023-04-20T06:13:47;102529.53;;;21.79;47.91
58690;BME280;44470;53.206;-6.106;2023-04-20T06:16:14;102530.34;;;21.56;48.84
58690;BME280;44470;53.206;-6.106;2023-04-20T06:18:39;102527.69;;;21.56;48.74
58690;BME280;44470;53.206;-6.106;2023-04-20T06:21:08;102530.34;;;21.41;48.64
58690;BME280;44470;53.206;-6.106;2023-04-20T06:23:33;102537.44;;;21.28;48.54
58690;BME280;44470;53.206;-6.106;2023-04-20T06:26:00;102529.44;;;21.32;48.98
58690;BME280;44470;53.206;-6.106;2023-04-20T06:28:25;102541.94;;;21.43;49.10
58690;BME280;44470;53.206;-6.106;2023-04-20T06:30:51;102531.25;;;21.46;48.02
58690;BME280;44470;53.206;-6.106;2023-04-20T06:33:16;102531.22;;;21.43;47.28
58690;BME280;44470;53.206;-6.106;2023-04-20T06:35:42;102541.09;;;21.48;46.32
58690;BME280;44470;53.206;-6.106;2023-04-20T06:38:08;102550.00;;;21.55;47.03
58690;BME280;44470;53.206;-6.106;2023-04-20T06:40:34;102516.03;;;21.40;46.22
58690;BME280;44470;53.206;-6.106;2023-04-20T06:42:59;102543.75;;;21.50;46.43
58690;BME280;44470;53.206;-6.106;2023-04-20T06:45:25;102535.72;;;21.58;45.74
58690;BME280;44470;53.206;-6.106;2023-04-20T06:47:51;102549.19;;;21.76;45.55
58690;BME280;44470;53.206;-6.106;2023-04-20T06:50:16;102538.38;;;21.50;45.87
58690;BME280;44470;53.206;-6.106;2023-04-20T06:52:42;102543.72;;;21.38;45.77
58690;BME280;44470;53.206;-6.106;2023-04-20T06:55:08;102549.09;;;21.44;45.73
58690;BME280;44470;53.206;-6.106;2023-04-20T06:57:34;102555.44;;;21.80;44.73
58690;BME280;44470;53.206;-6.106;2023-04-20T06:59:59;102545.59;;;21.63;44.95
58690;BME280;44470;53.206;-6.106;2023-04-20T07:02:25;102545.53;;;21.57;44.99
58690;BME280;44470;53.206;-6.106;2023-04-20T07:04:51;102536.66;;;21.65;44.79
58690;BME280;44470;53.206;-6.106;2023-04-20T07:07:16;102517.84;;;21.40;44.82
58690;BME280;44470;53.206;-6.106;2023-04-20T07:09:42;102543.75;;;21.59;44.89
58690;BME280;44470;53.206;-6.106;2023-04-20T07:12:08;102535.78;;;21.70;44.67
58690;BME280;44470;53.206;-6.106;2023-04-20T07:14:33;102533.09;;;21.72;44.26
58690;BME280;44470;53.206;-6.106;2023-04-20T07:16:59;102543.81;;;21.86;44.16
58690;BME280;44470;53.206;-6.106;2023-04-20T07:19:24;102544.72;;;21.88;44.29
58690;BME280;44470;53.206;-6.106;2023-04-20T07:21:50;102543.81;;;21.76;44.52
58690;BME280;44470;53.206;-6.106;2023-04-20T07:24:15;102534.88;;;21.68;44.43
58690;BME280;44470;53.206;-6.106;2023-04-20T07:26:41;102461.50;;;20.99;44.50
58690;BME280;44470;53.206;-6.106;2023-04-20T07:29:06;102549.09;;;21.41;45.02
58690;BME280;44470;53.206;-6.106;2023-04-20T07:31:31;102536.59;;;21.52;45.24
58690;BME280;44470;53.206;-6.106;2023-04-20T07:33:57;102538.41;;;21.53;44.79
58690;BME280;44470;53.206;-6.106;2023-04-20T07:36:22;102547.38;;;21.65;44.17
58690;BME280;44470;53.206;-6.106;2023-04-20T07:38:48;102545.59;;;21.70;44.12
58690;BME280;44470;53.206;-6.106;2023-04-20T07:41:14;102544.66;;;21.63;44.73
58690;BME280;44470;53.206;-6.106;2023-04-20T07:43:40;102539.31;;;21.60;44.24
58690;BME280;44470;53.206;-6.106;2023-04-20T07:46:06;102550.94;;;21.63;44.60
58690;BME280;44470;53.206;-6.106;2023-04-20T07:48:35;102548.22;;;21.56;44.86
58690;BME280;44470;53.206;-6.106;2023-04-20T07:51:01;102558.97;;;21.67;44.43
58690;BME280;44470;53.206;-6.106;2023-04-20T07:53:28;102550.03;;;21.63;44.05
58690;BME280;44470;53.206;-6.106;2023-04-20T07:55:53;102550.91;;;21.57;44.41
58690;BME280;44470;53.206;-6.106;2023-04-20T07:58:19;102559.00;;;21.65;44.56
58690;BME280;44470;53.206;-6.106;2023-04-20T08:00:46;102572.31;;;21.48;44.74
58690;BME280;44470;53.206;-6.106;2023-04-20T08:03:12;102565.16;;;21.44;44.84
58690;BME280;44470;53.206;-6.106;2023-04-20T08:05:38;102565.28;;;21.84;43.37
58690;BME280;44470;53.206;-6.106;2023-04-20T08:08:05;102561.63;;;21.59;43.34
58690;BME280;44470;53.206;-6.106;2023-04-20T08:10:31;102565.22;;;21.58;43.28
58690;BME280;44470;53.206;-6.106;2023-04-20T08:12:57;102553.56;;;21.51;44.15
58690;BME280;44470;53.206;-6.106;2023-04-20T08:15:22;102568.81;;;21.65;42.83
58690;BME280;44470;53.206;-6.106;2023-04-20T08:17:48;102564.28;;;21.45;43.38
58690;BME280;44470;53.206;-6.106;2023-04-20T08:20:13;102557.16;;;21.48;42.73
58690;BME280;44470;53.206;-6.106;2023-04-20T08:22:39;102577.72;;;21.59;42.81
58690;BME280;44470;53.206;-6.106;2023-04-20T08:25:04;102568.84;;;21.80;42.02
58690;BME280;44470;53.206;-6.106;2023-04-20T08:27:30;102566.13;;;21.71;42.02
58690;BME280;44470;53.206;-6.106;2023-04-20T08:29:56;102580.38;;;21.54;42.48
58690;BME280;44470;53.206;-6.106;2023-04-20T08:32:26;102588.41;;;21.57;42.50
58690;BME280;44470;53.206;-6.106;2023-04-20T08:34:52;102596.53;;;21.71;42.79
58690;BME280;44470;53.206;-6.106;2023-04-20T08:37:18;102585.78;;;21.65;43.09
58690;BME280;44470;53.206;-6.106;2023-04-20T08:39:44;102590.31;;;22.02;42.52
58690;BME280;44470;53.206;-6.106;2023-04-20T08:42:10;102584.84;;;21.58;43.92
58690;BME280;44470;53.206;-6.106;2023-04-20T08:44:36;102580.38;;;21.49;43.74
58690;BME280;44470;53.206;-6.106;2023-04-20T08:47:01;102575.91;;;21.50;44.18
58690;BME280;44470;53.206;-6.106;2023-04-20T08:49:28;102554.44;;;21.34;44.26
58690;BME280;44470;53.206;-6.106;2023-04-20T08:51:57;102579.47;;;21.61;43.98
58690;BME280;44470;53.206;-6.106;2023-04-20T08:54:22;102588.41;;;21.56;44.22
58690;BME280;44470;53.206;-6.106;2023-04-20T08:56:48;102592.84;;;21.49;44.99
58690;BME280;44470;53.206;-6.106;2023-04-20T08:59:14;102583.13;;;21.71;43.77
58690;BME280;44470;53.206;-6.106;2023-04-20T09:01:42;102580.44;;;21.68;44.16
58690;BME280;44470;53.206;-6.106;2023-04-20T09:06:45;102568.75;;;21.52;43.91
58690;BME280;44470;53.206;-6.106;2023-04-20T09:09:11;102581.34;;;21.78;43.61
58690;BME280;44470;53.206;-6.106;2023-04-20T09:11:37;102562.59;;;21.84;43.41
58690;BME280;44470;53.206;-6.106;2023-04-20T09:14:07;102569.75;;;21.98;43.28
58690;BME280;44470;53.206;-6.106;2023-04-20T09:16:38;102503.47;;;21.14;44.27
58690;BME280;44470;53.206;-6.106;2023-04-20T09:19:12;102586.72;;;21.81;44.05
58690;BME280;44470;53.206;-6.106;2023-04-20T09:21:50;102578.69;;;21.84;43.90
58690;BME280;44470;53.206;-6.106;2023-04-20T09:24:18;102579.56;;;22.11;43.50
58690;BME280;44470;53.206;-6.106;2023-04-20T09:26:44;102572.44;;;21.91;43.45
58690;BME280;44470;53.206;-6.106;2023-04-20T09:29:17;102574.22;;;21.92;43.86
58690;BME280;44470;53.206;-6.106;2023-04-20T09:31:43;102539.34;;;21.75;43.74
58690;BME280;44470;53.206;-6.106;2023-04-20T09:34:08;102560.78;;;21.71;44.34
58690;BME280;44470;53.206;-6.106;2023-04-20T09:36:39;102567.03;;;21.77;44.17
58690;BME280;44470;53.206;-6.106;2023-04-20T09:39:13;102570.66;;;21.84;43.63
58690;BME280;44470;53.206;-6.106;2023-04-20T09:41:40;102482.03;;;21.13;44.74
58690;BME280;44470;53.206;-6.106;2023-04-20T09:44:07;102540.19;;;21.57;44.42
58690;BME280;44470;53.206;-6.106;2023-04-20T09:46:35;102561.69;;;21.81;44.36
58690;BME280;44470;53.206;-6.106;2023-04-20T09:49:08;102537.56;;;21.74;44.18
58690;BME280;44470;53.206;-6.106;2023-04-20T09:51:35;102550.06;;;21.97;43.79
58690;BME280;44470;53.206;-6.106;2023-04-20T09:54:04;102561.66;;;21.70;44.35
58690;BME280;44470;53.206;-6.106;2023-04-20T09:56:31;102569.72;;;21.73;44.42
58690;BME280;44470;53.206;-6.106;2023-04-20T09:58:58;102566.16;;;21.66;45.02
58690;BME280;44470;53.206;-6.106;2023-04-20T10:01:24;102565.19;;;21.50;45.12
58690;BME280;44470;53.206;-6.106;2023-04-20T10:03:51;102562.59;;;21.75;44.94
58690;BME280;44470;53.206;-6.106;2023-04-20T10:06:23;102547.31;;;21.58;44.86
58690;BME280;44470;53.206;-6.106;2023-04-20T10:08:50;102555.41;;;21.74;45.11
58690;BME280;44470;53.206;-6.106;2023-04-20T10:11:42;102552.72;;;21.65;44.93
58690;BME280;44470;53.206;-6.106;2023-04-20T10:14:24;102565.28;;;21.81;44.69
58690;BME280;44470;53.206;-6.106;2023-04-20T10:17:03;102525.00;;;21.53;45.31
58690;BME280;44470;53.206;-6.106;2023-04-20T10:19:43;102563.38;;;21.46;45.63
58690;BME280;44470;53.206;-6.106;2023-04-20T10:22:09;102561.59;;;21.48;45.87
58690;BME280;44470;53.206;-6.106;2023-04-20T10:24:35;102556.28;;;21.53;45.74
58690;BME280;44470;53.206;-6.106;2023-04-20T10:27:18;102551.84;;;21.70;44.97
58690;BME280;44470;53.206;-6.106;2023-04-20T10:29:44;102542.06;;;21.89;44.98
58690;BME280;44470;53.206;-6.106;2023-04-20T10:32:20;102527.69;;;21.59;45.57
58690;BME280;44470;53.206;-6.106;2023-04-20T10:34:46;102478.50;;;21.22;45.49
58690;BME280;44470;53.206;-6.106;2023-04-20T10:37:12;102556.22;;;21.32;45.93
58690;BME280;44470;53.206;-6.106;2023-04-20T10:39:45;102524.91;;;21.20;45.76
58690;BME280;44470;53.206;-6.106;2023-04-20T10:42:12;102550.06;;;21.69;44.49
58690;BME280;44470;53.206;-6.106;2023-04-20T10:44:52;102555.44;;;21.92;43.65
58690;BME280;44470;53.206;-6.106;2023-04-20T10:47:28;102545.59;;;21.70;44.33
58690;BME280;44470;53.206;-6.106;2023-04-20T10:50:05;102544.72;;;21.85;43.75
58690;BME280;44470;53.206;-6.106;2023-04-20T10:52:36;102552.75;;;21.82;43.84
58690;BME280;44470;53.206;-6.106;2023-04-20T10:55:03;102541.09;;;21.62;44.32
58690;BME280;44470;53.206;-6.106;2023-04-20T10:57:29;102542.94;;;21.85;43.58
58690;BME280;44470;53.206;-6.106;2023-04-20T10:59:54;102540.25;;;21.88;43.91
58690;BME280;44470;53.206;-6.106;2023-04-20T11:02:20;102534.91;;;21.85;43.53
58690;BME280;44470;53.206;-6.106;2023-04-20T11:04:45;102539.34;;;22.11;43.36
58690;BME280;44470;53.206;-6.106;2023-04-20T11:07:11;102506.25;;;21.47;44.07
58690;BME280;44470;53.206;-6.106;2023-04-20T11:09:39;102538.41;;;21.59;44.40
58690;BME280;44470;53.206;-6.106;2023-04-20T11:12:09;102532.22;;;21.90;43.44
58690;BME280;44470;53.206;-6.106;2023-04-20T11:14:37;102539.38;;;21.77;44.08
58690;BME280;44470;53.206;-6.106;2023-04-20T11:17:04;102535.75;;;21.72;44.03
58690;BME280;44470;53.206;-6.106;2023-04-20T11:19:34;102529.53;;;22.07;42.98
58690;BME280;44470;53.206;-6.106;2023-04-20T11:22:02;102535.78;;;21.70;44.27
58690;BME280;44470;53.206;-6.106;2023-04-20T11:24:30;102525.06;;;22.11;43.18
58690;BME280;44470;53.206;-6.106;2023-04-20T11:26:56;102526.88;;;21.85;43.61
58690;BME280;44470;53.206;-6.106;2023-04-20T11:29:30;102494.66;;;21.67;43.53
58690;BME280;44470;53.206;-6.106;2023-04-20T11:31:57;102516.13;;;21.91;43.70
58690;BME280;44470;53.206;-6.106;2023-04-20T11:34:22;102506.28;;;21.92;43.70
58690;BME280;44470;53.206;-6.106;2023-04-20T11:36:48;102509.88;;;21.96;43.46
58690;BME280;44470;53.206;-6.106;2023-04-20T11:39:35;102508.09;;;21.98;43.40
58690;BME280;44470;53.206;-6.106;2023-04-20T11:42:01;102500.06;;;21.91;43.17
58690;BME280;44470;53.206;-6.106;2023-04-20T11:44:27;102448.22;;;21.63;43.62
58690;BME280;44470;53.206;-6.106;2023-04-20T11:46:53;102498.28;;;21.87;43.50
58690;BME280;44470;53.206;-6.106;2023-04-20T11:49:27;102473.22;;;21.73;43.65
58690;BME280;44470;53.206;-6.106;2023-04-20T11:51:53;102483.97;;;22.01;43.66
58690;BME280;44470;53.206;-6.106;2023-04-20T11:54:19;102458.97;;;21.77;43.61
58690;BME280;44470;53.206;-6.106;2023-04-20T11:56:46;102464.31;;;21.82;43.20
58690;BME280;44470;53.206;-6.106;2023-04-20T11:59:12;102481.25;;;22.13;42.88
58690;BME280;44470;53.206;-6.106;2023-04-20T12:01:49;102491.06;;;22.17;43.28
58690;BME280;44470;53.206;-6.106;2023-04-20T12:04:14;102446.41;;;21.93;43.01
58690;BME280;44470;53.206;-6.106;2023-04-20T12:06:40;102483.97;;;21.90;43.61
58690;BME280;44470;53.206;-6.106;2023-04-20T12:09:06;102484.84;;;22.11;43.08
58690;BME280;44470;53.206;-6.106;2023-04-20T12:11:32;102478.59;;;21.96;43.05
58690;BME280;44470;53.206;-6.106;2023-04-20T12:13:57;102446.47;;;21.82;43.16
58690;BME280;44470;53.206;-6.106;2023-04-20T12:16:24;102471.47;;;21.81;43.86
58690;BME280;44470;53.206;-6.106;2023-04-20T12:18:50;102476.81;;;21.83;43.65
58690;BME280;44470;53.206;-6.106;2023-04-20T12:21:16;102492.91;;;21.90;43.61
58690;BME280;44470;53.206;-6.106;2023-04-20T12:23:42;102488.44;;;21.99;43.39
58690;BME280;44470;53.206;-6.106;2023-04-20T12:26:08;102493.81;;;21.80;44.01
58690;BME280;44470;53.206;-6.106;2023-04-20T12:28:34;102494.69;;;21.81;44.02
58690;BME280;44470;53.206;-6.106;2023-04-20T12:30:59;102487.53;;;22.03;43.32
58690;BME280;44470;53.206;-6.106;2023-04-20T12:33:25;102484.84;;;22.00;43.34
58690;BME280;44470;53.206;-6.106;2023-04-20T12:35:51;102483.91;;;22.26;42.99
58690;BME280;44470;53.206;-6.106;2023-04-20T12:38:16;102485.75;;;21.83;43.58
58690;BME280;44470;53.206;-6.106;2023-04-20T12:40:42;102477.72;;;21.92;43.38
58690;BME280;44470;53.206;-6.106;2023-04-20T12:43:07;102481.28;;;21.98;43.22